Time;durP1;ratioP1;P1;durP2;ratioP2;P2;SDS_P1;SDS_P2;PMS_P1;PMS_P2;Temp;Humidity;BMP_temperature;BMP_pressure;BME280_temperature;BME280_humidity;BME280_pressure;Samples;Min_cycle;Max_cycle;Signal;HPM_P1;HPM_P2
2021/01/17 00:00:09;;;;;;;26.97;13.90;;;-1.20;84.20;;;;;;5072292;28;20048;-74
2021/01/17 00:02:38;;;;;;;29.07;14.13;;;-1.20;84.20;;;;;;5072329;28;20480;-74
2021/01/17 00:05:08;;;;;;;27.63;14.13;;;-1.30;84.30;;;;;;5065361;28;20036;-74
2021/01/17 00:07:34;;;;;;;26.77;13.50;;;-1.30;84.30;;;;;;5067678;28;20124;-74
2021/01/17 00:09:59;;;;;;;26.87;13.23;;;-1.30;84.30;;;;;;5061274;28;20119;-74
2021/01/17 00:12:25;;;;;;;29.27;14.97;;;-1.30;84.40;;;;;;5071670;28;20398;-74
2021/01/17 00:14:51;;;;;;;29.97;14.93;;;-1.30;84.50;;;;;;5054096;28;20044;-71
2021/01/17 00:17:16;;;;;;;27.07;13.60;;;-1.30;84.60;;;;;;5072580;28;20044;-74
2021/01/17 00:19:42;;;;;;;28.27;13.73;;;-1.30;84.80;;;;;;5070599;28;20515;-74
2021/01/17 00:22:08;;;;;;;30.07;14.27;;;-1.30;84.80;;;;;;5070206;28;20098;-74
2021/01/17 00:24:34;;;;;;;26.93;14.03;;;-1.30;84.80;;;;;;5072561;28;20041;-74
2021/01/17 00:26:59;;;;;;;27.27;13.40;;;-1.30;84.80;;;;;;5072438;28;20045;-74
2021/01/17 00:29:25;;;;;;;25.97;13.60;;;-1.40;84.70;;;;;;5070431;28;20044;-74
2021/01/17 00:31:51;;;;;;;27.37;14.07;;;-1.40;84.80;;;;;;5071947;28;20408;-74
2021/01/17 00:34:17;;;;;;;27.13;13.67;;;-1.40;84.80;;;;;;5072098;28;20047;-74
2021/01/17 00:36:43;;;;;;;26.73;14.07;;;-1.40;84.80;;;;;;5072070;28;20127;-74
2021/01/17 00:39:08;;;;;;;27.93;14.53;;;-1.40;84.90;;;;;;5072227;28;20048;-74
2021/01/17 00:41:35;;;;;;;26.60;13.90;;;-1.50;84.90;;;;;;5071283;28;20029;-74
2021/01/17 00:44:02;;;;;;;26.33;13.13;;;-1.50;85.00;;;;;;5070754;28;20060;-74
2021/01/17 00:46:38;;;;;;;26.63;14.37;;;-1.50;85.10;;;;;;5071715;28;20041;-74
2021/01/17 00:49:04;;;;;;;30.47;13.13;;;-1.50;85.10;;;;;;5072033;28;20067;-74
2021/01/17 00:51:46;;;;;;;28.07;12.73;;;-1.60;85.20;;;;;;5052907;28;20063;-73
2021/01/17 00:54:14;;;;;;;27.60;14.07;;;-1.60;85.30;;;;;;5054456;28;20033;-74
2021/01/17 00:56:42;;;;;;;27.27;13.87;;;-1.60;85.30;;;;;;5069965;28;20094;-73
2021/01/17 00:59:10;;;;;;;28.70;14.07;;;-1.60;85.40;;;;;;5070524;28;20033;-73
2021/01/17 01:01:37;;;;;;;30.07;14.37;;;-1.60;85.40;;;;;;5069344;28;20035;-73
2021/01/17 01:04:03;;;;;;;27.33;13.77;;;-1.60;85.40;;;;;;5071638;28;20025;-73
2021/01/17 01:06:29;;;;;;;30.43;14.67;;;-1.70;85.50;;;;;;5071776;28;20402;-74
2021/01/17 01:08:54;;;;;;;29.90;14.23;;;-1.70;85.60;;;;;;5069948;28;20230;-73
2021/01/17 01:11:21;;;;;;;29.93;14.70;;;-1.70;85.50;;;;;;5053024;28;20029;-73
2021/01/17 01:13:47;;;;;;;30.20;14.63;;;-1.70;86.10;;;;;;5071541;28;20115;-74
2021/01/17 01:16:14;;;;;;;29.67;15.17;;;-1.70;85.70;;;;;;5069663;28;20485;-73
2021/01/17 01:18:40;;;;;;;29.60;15.07;;;-1.70;85.80;;;;;;5071324;28;20077;-74
2021/01/17 01:21:06;;;;;;;29.47;14.30;;;-1.70;85.80;;;;;;5070193;28;20044;-74
2021/01/17 01:23:32;;;;;;;32.87;14.77;;;-1.80;85.70;;;;;;5071407;28;20043;-74
2021/01/17 01:25:58;;;;;;;29.63;15.13;;;-1.80;85.90;;;;;;5071188;28;20047;-74
2021/01/17 01:28:23;;;;;;;30.27;15.00;;;-1.80;86.00;;;;;;5071049;28;20032;-74
2021/01/17 01:30:49;;;;;;;29.70;14.37;;;-1.80;86.00;;;;;;5070552;28;20040;-74
2021/01/17 01:33:15;;;;;;;29.57;15.17;;;-1.80;86.10;;;;;;5070786;28;20037;-74
2021/01/17 01:35:41;;;;;;;29.37;13.50;;;-1.80;86.10;;;;;;5071364;28;20086;-74
2021/01/17 01:38:08;;;;;;;28.87;14.73;;;-1.80;86.10;;;;;;5071006;28;20138;-74
2021/01/17 01:40:34;;;;;;;29.67;15.00;;;-1.80;86.10;;;;;;5069947;28;20086;-74
2021/01/17 01:43:00;;;;;;;28.03;13.80;;;-1.80;86.20;;;;;;5071204;28;20045;-74
2021/01/17 01:45:25;;;;;;;31.47;14.83;;;-1.90;86.10;;;;;;5070610;28;20127;-74
2021/01/17 01:47:51;;;;;;;30.57;13.43;;;-1.90;86.30;;;;;;5071095;28;20041;-74
2021/01/17 01:50:17;;;;;;;30.40;14.17;;;-1.90;86.40;;;;;;5070552;28;20036;-74
2021/01/17 01:52:43;;;;;;;28.60;14.20;;;-1.90;86.50;;;;;;5052560;28;20056;-74
2021/01/17 01:55:09;;;;;;;32.63;15.47;;;-2.00;86.50;;;;;;5070894;28;20040;-73
2021/01/17 01:57:35;;;;;;;29.07;14.07;;;-2.00;86.60;;;;;;5070574;28;20432;-73
2021/01/17 02:00:04;;;;;;;30.23;15.23;;;-1.90;86.70;;;;;;5070234;28;20115;-73
2021/01/17 02:02:45;;;;;;;25.90;12.80;;;-1.90;86.90;;;;;;5054231;28;20583;-73
2021/01/17 02:05:12;;;;;;;28.57;13.80;;;-2.00;87.00;;;;;;5070833;28;20052;-74
2021/01/17 02:07:59;;;;;;;28.53;13.77;;;-2.00;87.10;;;;;;5070840;28;20025;-74
2021/01/17 02:10:25;;;;;;;26.83;14.03;;;-1.90;87.40;;;;;;5069645;28;20071;-73
2021/01/17 02:13:10;;;;;;;28.53;14.27;;;-1.90;87.50;;;;;;5070848;28;20496;-74
2021/01/17 02:15:38;;;;;;;28.07;13.17;;;-1.80;87.60;;;;;;5069326;28;20056;-73
2021/01/17 02:18:08;;;;;;;30.00;14.13;;;-1.80;87.70;;;;;;5070606;28;20041;-73
2021/01/17 02:20:36;;;;;;;28.10;14.00;;;-1.70;87.70;;;;;;5068344;28;20042;-73
2021/01/17 02:23:02;;;;;;;28.07;13.90;;;-1.70;87.70;;;;;;5069185;28;20520;-74
2021/01/17 02:25:35;;;;;;;27.57;13.77;;;-1.70;87.70;;;;;;5070737;28;20033;-74
2021/01/17 02:28:03;;;;;;;28.87;13.80;;;-1.60;87.80;;;;;;5070423;28;20040;-74
2021/01/17 02:30:34;;;;;;;27.33;13.77;;;-1.60;87.80;;;;;;5068787;28;20417;-73
2021/01/17 02:33:11;;;;;;;25.83;13.25;;;-1.60;87.70;;;;;;5070218;28;20037;-74
2021/01/17 02:35:39;;;;;;;28.60;14.00;;;-1.50;87.70;;;;;;5070721;28;20041;-74
2021/01/17 02:38:30;;;;;;;26.87;13.20;;;-1.50;87.70;;;;;;5068636;28;20102;-74
2021/01/17 02:41:18;;;;;;;26.73;13.00;;;-1.50;87.70;;;;;;5069451;28;20515;-74
2021/01/17 02:43:45;;;;;;;24.47;13.03;;;-1.50;87.80;;;;;;5071190;28;20451;-74
2021/01/17 02:46:11;;;;;;;28.30;14.03;;;-1.40;87.80;;;;;;5074033;28;20037;-74
2021/01/17 02:48:37;;;;;;;27.60;13.80;;;-1.40;87.90;;;;;;5074389;28;20397;-74
2021/01/17 02:51:02;;;;;;;29.37;13.57;;;-1.40;87.80;;;;;;5073139;28;20041;-73
2021/01/17 02:53:43;;;;;;;28.80;13.93;;;-1.40;87.80;;;;;;5072992;28;20481;-74
2021/01/17 02:56:16;;;;;;;26.73;13.98;;;-1.30;87.80;;;;;;5073793;28;20424;-74
2021/01/17 02:58:45;;;;;;;30.23;14.00;;;-1.30;87.80;;;;;;5072900;28;20037;-74
2021/01/17 03:01:14;;;;;;;29.10;13.80;;;-1.30;87.60;;;;;;5073017;28;20047;-74
2021/01/17 03:03:43;;;;;;;26.90;14.17;;;-1.30;87.60;;;;;;5074056;28;20044;-74
2021/01/17 03:06:10;;;;;;;25.23;12.93;;;-1.30;87.60;;;;;;5072940;28;20165;-73
2021/01/17 03:08:37;;;;;;;28.33;15.00;;;-1.20;87.70;;;;;;5073546;28;20051;-73
2021/01/17 03:11:04;;;;;;;27.60;13.87;;;-1.20;87.70;;;;;;5055242;28;20047;-74
2021/01/17 03:13:31;;;;;;;26.40;13.43;;;-1.20;87.70;;;;;;5072150;28;20036;-74
2021/01/17 03:15:58;;;;;;;27.47;13.70;;;-1.20;87.70;;;;;;5073933;28;20060;-74
2021/01/17 03:18:23;;;;;;;29.60;14.33;;;-1.20;87.70;;;;;;5073751;28;20060;-74
2021/01/17 03:20:49;;;;;;;28.27;14.27;;;-1.20;88.10;;;;;;5072687;28;20036;-74
2021/01/17 03:23:15;;;;;;;27.83;14.23;;;-1.20;87.70;;;;;;5071897;28;20052;-73
2021/01/17 03:25:41;;;;;;;28.60;13.97;;;-1.20;87.60;;;;;;5073275;28;20054;-74
2021/01/17 03:28:06;;;;;;;33.23;15.53;;;-1.20;87.60;;;;;;5073671;28;20078;-74
2021/01/17 03:30:32;;;;;;;30.20;15.40;;;-1.20;87.70;;;;;;5071703;28;20515;-74
2021/01/17 03:32:58;;;;;;;31.73;15.57;;;-1.20;87.60;;;;;;5072970;28;20048;-73
2021/01/17 03:35:24;;;;;;;30.87;14.93;;;-1.20;87.70;;;;;;5072256;28;20039;-73
2021/01/17 03:37:49;;;;;;;28.60;13.77;;;-1.10;87.70;;;;;;5072990;28;20198;-73
2021/01/17 03:40:15;;;;;;;30.77;14.60;;;-1.10;87.70;;;;;;5071444;28;20132;-73
2021/01/17 03:42:41;;;;;;;27.40;14.93;;;-1.10;87.70;;;;;;5072026;28;20112;-73
2021/01/17 03:45:07;;;;;;;29.10;15.50;;;-1.10;87.80;;;;;;5072882;28;20040;-73
2021/01/17 03:47:33;;;;;;;30.93;14.70;;;-1.10;87.80;;;;;;5073271;28;20047;-75
2021/01/17 03:49:58;;;;;;;33.37;16.50;;;-1.10;87.90;;;;;;5072223;28;20041;-74
2021/01/17 03:52:24;;;;;;;32.63;15.83;;;-1.00;87.80;;;;;;5073336;28;20028;-73
2021/01/17 03:54:50;;;;;;;29.37;15.70;;;-1.00;87.80;;;;;;5072775;28;20040;-74
2021/01/17 03:57:15;;;;;;;33.00;15.00;;;-1.00;87.80;;;;;;5071836;28;20056;-73
2021/01/17 03:59:41;;;;;;;29.17;13.40;;;-1.00;87.70;;;;;;5071043;28;20511;-74
2021/01/17 04:02:07;;;;;;;31.20;14.83;;;-1.00;87.60;;;;;;5072431;28;20115;-74
2021/01/17 04:04:33;;;;;;;32.30;15.57;;;-1.00;87.50;;;;;;5073021;28;20024;-74
2021/01/17 04:06:58;;;;;;;29.93;16.03;;;-1.00;87.50;;;;;;5072868;28;20037;-74
2021/01/17 04:09:24;;;;;;;30.37;14.97;;;-1.10;87.40;;;;;;5070966;28;20040;-74
2021/01/17 04:11:50;;;;;;;32.83;17.00;;;-1.10;87.40;;;;;;5072526;28;20032;-74
2021/01/17 04:14:16;;;;;;;33.30;15.60;;;-1.10;87.40;;;;;;5072469;28;20029;-74
2021/01/17 04:16:52;;;;;;;33.20;16.37;;;-1.10;87.50;;;;;;5072510;28;20669;-74
2021/01/17 04:19:19;;;;;;;32.63;17.13;;;-1.10;87.70;;;;;;5071304;28;20033;-74
2021/01/17 04:21:45;;;;;;;30.60;15.70;;;-1.20;87.60;;;;;;5053581;28;20108;-73
2021/01/17 04:24:11;;;;;;;37.10;17.30;;;-1.20;87.70;;;;;;5071429;28;20020;-73
2021/01/17 04:26:37;;;;;;;33.47;17.00;;;-1.20;87.70;;;;;;5072205;28;20035;-73
2021/01/17 04:29:03;;;;;;;34.53;16.23;;;-1.20;87.70;;;;;;5072464;28;20102;-73
2021/01/17 04:31:44;;;;;;;37.40;18.63;;;-1.20;88.10;;;;;;5071719;28;20043;-73
2021/01/17 04:34:10;;;;;;;;;;;-1.20;87.70;;;;;;5071536;28;20032;-73
2021/01/17 04:36:36;;;;;;;31.97;15.63;;;-1.30;87.70;;;;;;5072330;28;19915;-74
2021/01/17 04:39:06;;;;;;;32.97;16.33;;;-1.30;87.80;;;;;;5070587;28;20508;-73
2021/01/17 04:41:34;;;;;;;35.80;17.57;;;-1.20;87.90;;;;;;5071603;28;20032;-74
2021/01/17 04:44:03;;;;;;;33.83;16.87;;;-1.30;87.80;;;;;;5071761;28;20043;-74
2021/01/17 04:46:30;;;;;;;34.80;17.30;;;-1.30;87.80;;;;;;5071054;28;20037;-74
2021/01/17 04:49:02;;;;;;;32.57;16.70;;;-1.30;87.90;;;;;;5072031;28;20044;-74
2021/01/17 04:51:28;;;;;;;37.63;18.23;;;-1.30;88.00;;;;;;5070816;28;20401;-74
2021/01/17 04:53:55;;;;;;;36.63;18.80;;;-1.30;88.10;;;;;;5071967;28;20055;-74
2021/01/17 04:56:25;;;;;;;36.77;18.40;;;-1.30;88.10;;;;;;5070060;28;20493;-74
2021/01/17 04:59:10;;;;;;;34.90;17.60;;;-1.30;88.10;;;;;;5070724;28;20609;-74
2021/01/17 05:01:48;;;;;;;35.10;17.43;;;-1.20;88.30;;;;;;5069463;28;20036;-74
2021/01/17 05:04:38;;;;;;;34.93;17.50;;;-1.30;88.20;;;;;;5071752;28;20036;-74
2021/01/17 05:07:29;;;;;;;35.35;17.63;;;-1.30;88.30;;;;;;5069469;28;20413;-74
2021/01/17 05:10:06;;;;;;;34.53;17.47;;;-1.30;88.20;;;;;;5070284;28;20302;-73
2021/01/17 05:12:47;;;;;;;37.93;18.00;;;-1.30;88.10;;;;;;5070386;28;20029;-74
2021/01/17 05:15:12;;;;;;;36.22;17.10;;;-1.30;88.20;;;;;;5071059;28;20060;-73
2021/01/17 05:17:40;;;;;;;36.17;17.43;;;-1.30;88.20;;;;;;5071409;28;20056;-74
2021/01/17 05:20:07;;;;;;;34.00;18.53;;;-1.30;88.10;;;;;;5069199;28;20561;-73
2021/01/17 05:22:34;;;;;;;38.23;18.27;;;-1.30;88.10;;;;;;5069978;28;20115;-74
2021/01/17 05:25:06;;;;;;;37.57;17.83;;;-1.30;88.20;;;;;;5070316;28;20736;-73
2021/01/17 05:27:34;;;;;;;35.17;18.03;;;-1.30;88.20;;;;;;5069804;28;20054;-73
2021/01/17 05:30:00;;;;;;;34.80;17.43;;;-1.40;88.10;;;;;;5069342;28;20043;-74
2021/01/17 05:32:26;;;;;;;34.10;17.97;;;-1.30;88.20;;;;;;5069692;28;20405;-74
2021/01/17 05:34:52;;;;;;;40.40;18.77;;;-1.40;88.20;;;;;;5071237;28;20055;-74
2021/01/17 05:37:18;;;;;;;38.23;18.47;;;-1.40;88.20;;;;;;5070810;28;20484;-74
2021/01/17 05:39:59;;;;;;;38.53;18.17;;;-1.50;88.30;;;;;;5070678;28;20504;-74
2021/01/17 05:42:27;;;;;;;38.75;18.83;;;-1.50;88.40;;;;;;5069980;28;20101;-74
2021/01/17 05:45:09;;;;;;;40.33;19.10;;;-1.50;88.40;;;;;;5070950;28;20025;-74
2021/01/17 05:47:35;;;;;;;37.90;17.10;;;-1.50;88.40;;;;;;5070772;28;20036;-74
2021/01/17 05:50:11;;;;;;;36.17;18.13;;;-1.50;88.50;;;;;;5070420;28;20032;-74
2021/01/17 05:52:37;;;;;;;39.60;19.70;;;-1.50;88.60;;;;;;5071026;28;20044;-74
2021/01/17 05:55:05;;;;;;;36.47;18.00;;;-1.60;88.60;;;;;;5069409;28;20040;-74
2021/01/17 05:57:34;;;;;;;35.43;17.97;;;-1.60;88.70;;;;;;5069728;28;20094;-73
2021/01/17 06:00:03;;;;;;;40.40;18.93;;;-1.60;88.70;;;;;;5069774;28;20037;-74
2021/01/17 06:02:40;;;;;;;35.87;17.30;;;-1.60;88.80;;;;;;5071047;28;20031;-73
2021/01/17 06:05:08;;;;;;;38.27;18.60;;;-1.60;88.90;;;;;;5069233;28;20485;-74
2021/01/17 06:07:34;;;;;;;38.50;18.47;;;-1.60;88.90;;;;;;5070973;28;20135;-74
2021/01/17 06:10:03;;;;;;;35.90;18.13;;;-1.60;89.00;;;;;;5069652;28;20436;-73
2021/01/17 06:12:37;;;;;;;37.37;18.93;;;-1.70;89.00;;;;;;5069611;28;20111;-73
2021/01/17 06:15:05;;;;;;;35.57;15.13;;;-1.60;89.10;;;;;;5069260;28;20500;-73
2021/01/17 06:17:34;;;;;;;38.20;18.43;;;-1.70;89.00;;;;;;5069109;28;20477;-73
2021/01/17 06:20:02;;;;;;;38.83;18.47;;;-1.70;89.00;;;;;;5072969;28;20075;-73
2021/01/17 06:22:29;;;;;;;37.43;18.10;;;-1.70;89.10;;;;;;5074341;28;20063;-73
2021/01/17 06:25:00;;;;;;;38.70;17.40;;;-1.70;89.70;;;;;;5073761;28;20081;-74
2021/01/17 06:27:27;;;;;;;36.58;17.55;;;-1.70;89.30;;;;;;5074451;28;20052;-73
2021/01/17 06:29:53;;;;;;;39.00;18.83;;;-1.80;89.30;;;;;;5074187;28;20115;-74
2021/01/17 06:32:21;;;;;;;41.30;18.17;;;-1.80;89.20;;;;;;5074230;28;20063;-73
2021/01/17 06:34:49;;;;;;;36.57;17.13;;;-1.80;89.20;;;;;;5074737;28;20040;-73
2021/01/17 06:37:17;;;;;;;35.57;16.83;;;-1.80;89.50;;;;;;5074579;28;20489;-73
2021/01/17 06:39:56;;;;;;;38.47;19.03;;;-1.80;89.20;;;;;;5073607;28;20040;-73
2021/01/17 06:42:22;;;;;;;39.37;18.73;;;-1.90;89.20;;;;;;5074414;28;20102;-74
2021/01/17 06:44:50;;;;;;;38.70;18.33;;;-1.90;89.20;;;;;;5074033;28;20047;-73
2021/01/17 06:47:25;;;;;;;37.57;18.17;;;-1.90;89.40;;;;;;5073169;28;20033;-74
2021/01/17 06:49:53;;;;;;;40.97;19.13;;;-2.00;89.30;;;;;;5073518;28;20079;-73
2021/01/17 06:52:19;;;;;;;40.20;18.20;;;-2.00;90.00;;;;;;5074261;28;20037;-73
2021/01/17 06:54:53;;;;;;;38.37;18.93;;;-2.00;89.50;;;;;;5073906;28;20067;-73
2021/01/17 06:57:20;;;;;;;41.10;19.37;;;-2.00;89.60;;;;;;5072917;28;20098;-73
2021/01/17 06:59:50;;;;;;;42.37;19.70;;;-2.00;89.60;;;;;;5073633;28;20063;-73
2021/01/17 07:02:25;;;;;;;44.90;20.55;;;-2.00;89.70;;;;;;5072458;28;20033;-73
2021/01/17 07:05:29;;;;;;;43.83;20.50;;;-2.00;89.70;;;;;;5074181;28;20082;-73
2021/01/17 07:08:20;;;;;;;39.27;18.97;;;-2.10;90.00;;;;;;4992063;28;20035;-74
2021/01/17 07:10:52;;;;;;;42.03;19.03;;;-2.10;89.80;;;;;;5070226;28;20489;-73
2021/01/17 07:13:21;;;;;;;42.17;19.67;;;-2.10;89.80;;;;;;5074086;28;20037;-73
2021/01/17 07:15:49;;;;;;;44.17;19.77;;;-2.20;89.80;;;;;;5073402;28;20059;-73
2021/01/17 07:18:16;;;;;;;43.23;20.73;;;-2.20;89.80;;;;;;5072356;28;20408;-74
2021/01/17 07:20:44;;;;;;;43.10;19.67;;;-2.20;89.90;;;;;;5073014;28;20054;-73
2021/01/17 07:23:12;;;;;;;43.30;19.20;;;-2.20;90.00;;;;;;5073323;28;20052;-73
2021/01/17 07:25:44;;;;;;;43.00;19.23;;;-2.20;90.00;;;;;;5073781;28;20052;-73
2021/01/17 07:28:14;;;;;;;42.87;20.07;;;-2.20;90.00;;;;;;5073319;28;20504;-74
2021/01/17 07:31:02;;;;;;;42.53;20.17;;;-2.30;90.00;;;;;;5072577;28;20063;-74
2021/01/17 07:33:35;;;;;;;41.37;19.20;;;-2.30;90.00;;;;;;5073333;28;20032;-74
2021/01/17 07:36:07;;;;;;;42.23;20.27;;;-2.30;90.30;;;;;;5073608;28;20042;-74
2021/01/17 07:38:34;;;;;;;39.50;19.17;;;-2.30;90.10;;;;;;5073069;28;20040;-74
2021/01/17 07:41:08;;;;;;;41.63;19.57;;;-2.30;90.10;;;;;;5072778;28;20063;-74
2021/01/17 07:43:39;;;;;;;44.90;20.73;;;-2.30;90.20;;;;;;5072903;28;20037;-74
2021/01/17 07:46:06;;;;;;;43.95;20.55;;;-2.30;90.20;;;;;;5073503;28;20469;-73
2021/01/17 07:48:33;;;;;;;44.17;20.93;;;-2.30;90.20;;;;;;5072950;28;20047;-73
2021/01/17 07:51:00;;;;;;;41.90;19.67;;;-2.20;90.20;;;;;;5071155;28;20037;-74
2021/01/17 07:53:38;;;;;;;45.07;19.67;;;-2.20;90.50;;;;;;5071775;28;20067;-74
2021/01/17 07:56:16;;;;;;;40.73;19.27;;;-2.20;90.30;;;;;;5073098;28;20040;-74
2021/01/17 07:58:44;;;;;;;48.70;23.10;;;-2.10;90.30;;;;;;5072650;28;20337;-72
2021/01/17 08:01:45;;;;;;;41.90;19.90;;;-2.10;90.30;;;;;;5068288;28;20041;-74
2021/01/17 08:04:12;;;;;;;40.87;19.10;;;-2.00;90.40;;;;;;4990255;28;20395;-74
2021/01/17 08:06:38;;;;;;;45.20;20.80;;;-2.00;90.30;;;;;;5052197;28;20139;-74
2021/01/17 08:09:05;;;;;;;42.93;19.43;;;-1.90;90.40;;;;;;5064581;28;20044;-74
2021/01/17 08:11:56;;;;;;;38.90;19.30;;;-1.90;90.40;;;;;;5061346;28;20144;-74
2021/01/17 08:14:32;;;;;;;;;;;-1.80;90.40;;;;;;5064030;28;20032;-74
2021/01/17 08:17:18;;;;;;;41.27;18.77;;;-1.80;90.40;;;;;;5061198;28;19927;-73
2021/01/17 08:19:53;;;;;;;38.90;18.83;;;-1.70;90.40;;;;;;5075748;28;20380;-75
2021/01/17 08:22:22;;;;;;;40.90;18.57;;;-1.70;90.40;;;;;;5060773;28;20393;-73
2021/01/17 08:25:06;;;;;;;39.97;18.63;;;-1.60;90.40;;;;;;5060611;28;20499;-73
2021/01/17 08:27:42;;;;;;;37.90;16.87;;;-1.50;90.40;;;;;;5061874;28;20039;-73
2021/01/17 08:30:08;;;;;;;39.50;19.57;;;-1.40;90.40;;;;;;5062132;28;20049;-73
2021/01/17 08:32:50;;;;;;;45.23;21.07;;;-1.40;90.30;;;;;;5061292;28;20084;-75
2021/01/17 08:35:19;;;;;;;35.97;16.93;;;-1.20;90.40;;;;;;5065278;28;20036;-74
2021/01/17 08:37:55;;;;;;;40.50;20.63;;;-1.10;90.40;;;;;;5061942;28;20052;-74
2021/01/17 08:40:29;;;;;;;36.27;16.27;;;-1.00;90.40;;;;;;5066382;28;20045;-74
2021/01/17 08:43:00;;;;;;;36.37;18.07;;;-1.00;90.20;;;;;;5063910;28;20045;-74
2021/01/17 08:45:28;;;;;;;33.78;16.50;;;-0.90;90.30;;;;;;5069217;28;20044;-74
2021/01/17 08:48:14;;;;;;;34.93;17.47;;;-0.80;90.20;;;;;;5065942;28;20037;-74
2021/01/17 08:50:40;;;;;;;36.77;17.40;;;-0.70;90.00;;;;;;5047772;28;20044;-74
2021/01/17 08:53:16;;;;;;;37.27;18.87;;;-0.70;89.90;;;;;;5070741;28;20036;-73
2021/01/17 08:55:49;;;;;;;36.57;17.63;;;-0.60;89.80;;;;;;5067314;28;20134;-74
2021/01/17 08:58:37;;;;;;;33.67;16.90;;;-0.60;89.80;;;;;;5063868;28;20048;-73
2021/01/17 09:01:05;;;;;;;31.23;15.30;;;-0.60;89.80;;;;;;5055304;28;20057;-73
2021/01/17 09:03:34;;;;;;;33.57;15.43;;;-0.50;89.80;;;;;;5060489;28;20091;-73
2021/01/17 09:06:25;;;;;;;31.33;15.83;;;-0.40;89.40;;;;;;5063014;28;20127;-73
2021/01/17 09:08:53;;;;;;;34.65;17.52;;;-0.40;89.00;;;;;;5067797;28;20064;-74
2021/01/17 09:11:28;;;;;;;33.37;16.53;;;-0.40;88.90;;;;;;5052236;28;20032;-73
2021/01/17 09:14:14;;;;;;;33.63;16.37;;;-0.40;89.30;;;;;;5070560;28;20044;-74
2021/01/17 09:16:51;;;;;;;33.40;17.53;;;-0.40;89.10;;;;;;5069762;28;20115;-73
2021/01/17 09:19:19;;;;;;;34.90;17.70;;;-0.30;89.00;;;;;;5071030;28;20040;-73
2021/01/17 09:21:48;;;;;;;34.00;16.87;;;-0.30;89.00;;;;;;5070502;28;20045;-73
2021/01/17 09:24:20;;;;;;;30.27;15.60;;;-0.20;88.90;;;;;;5053540;28;20129;-73
2021/01/17 09:26:49;;;;;;;33.50;16.53;;;-0.10;88.80;;;;;;5070930;28;20097;-73
2021/01/17 09:29:43;;;;;;;34.40;16.80;;;-0.10;88.40;;;;;;5071031;28;20060;-73
2021/01/17 09:32:16;;;;;;;33.13;16.83;;;0.00;88.40;;;;;;5070567;28;20401;-73
2021/01/17 09:34:49;;;;;;;30.80;15.67;;;0.00;88.40;;;;;;5053492;28;20446;-73
2021/01/17 09:37:18;;;;;;;30.70;15.93;;;0.10;88.30;;;;;;5064039;28;20116;-73
2021/01/17 09:39:45;;;;;;;31.27;16.40;;;0.10;87.80;;;;;;5064798;28;20562;-73
2021/01/17 09:42:13;;;;;;;29.53;15.57;;;0.10;87.70;;;;;;5059883;28;20075;-73
2021/01/17 09:44:42;;;;;;;30.43;14.47;;;0.20;88.00;;;;;;5059812;28;20032;-74
2021/01/17 09:47:19;;;;;;;30.97;15.87;;;0.30;88.20;;;;;;5062271;28;20040;-73
2021/01/17 09:49:46;;;;;;;31.30;15.47;;;0.30;87.60;;;;;;5070257;28;20120;-74
2021/01/17 09:52:19;;;;;;;31.20;15.97;;;0.30;87.50;;;;;;5069246;28;20033;-73
2021/01/17 09:54:49;;;;;;;32.13;16.07;;;0.30;87.30;;;;;;5062399;28;20067;-73
2021/01/17 09:57:21;;;;;;;31.07;15.67;;;0.30;87.30;;;;;;5063553;28;20084;-73
2021/01/17 09:59:50;;;;;;;31.27;16.67;;;0.30;87.30;;;;;;5054028;28;20059;-74
2021/01/17 10:02:17;;;;;;;35.37;16.93;;;0.40;87.60;;;;;;5061202;28;20032;-74
2021/01/17 10:04:43;;;;;;;32.57;16.40;;;0.50;87.90;;;;;;5054612;28;20033;-74
2021/01/17 10:07:17;;;;;;;34.30;16.70;;;0.60;87.70;;;;;;5067233;28;20448;-74
2021/01/17 10:09:43;;;;;;;29.97;15.83;;;0.70;87.70;;;;;;5055966;28;20115;-74
2021/01/17 10:12:11;;;;;;;29.10;15.10;;;0.80;87.10;;;;;;5058026;28;20441;-73
2021/01/17 10:14:37;;;;;;;27.97;15.23;;;0.80;86.80;;;;;;5064086;28;20056;-73
2021/01/17 10:17:07;;;;;;;30.27;15.80;;;0.80;86.60;;;;;;5035915;28;20033;-74
2021/01/17 10:19:35;;;;;;;30.05;16.05;;;0.90;86.30;;;;;;5063666;28;20082;-71
2021/01/17 10:22:02;;;;;;;30.13;16.57;;;0.90;86.30;;;;;;5060126;28;20043;-74
2021/01/17 10:24:29;;;;;;;30.17;15.37;;;1.00;86.90;;;;;;5056704;28;20025;-75
2021/01/17 10:26:57;;;;;;;28.73;13.80;;;1.10;86.20;;;;;;5065113;28;20554;-74
2021/01/17 10:29:29;;;;;;;31.30;15.40;;;1.10;85.50;;;;;;5055305;28;20029;-74
2021/01/17 10:32:03;;;;;;;31.83;15.63;;;1.10;85.00;;;;;;5060241;28;20040;-74
2021/01/17 10:34:32;;;;;;;30.83;15.70;;;1.10;85.50;;;;;;5057637;28;20025;-74
2021/01/17 10:37:00;;;;;;;29.70;14.57;;;1.20;85.60;;;;;;5060120;28;20040;-73
2021/01/17 10:39:27;;;;;;;27.97;13.13;;;1.20;85.40;;;;;;5060483;28;20456;-75
2021/01/17 10:42:03;;;;;;;32.13;15.40;;;1.20;84.90;;;;;;5061176;28;20409;-72
2021/01/17 10:44:33;;;;;;;28.47;14.57;;;1.20;84.60;;;;;;5060681;28;20499;-75
2021/01/17 10:47:05;;;;;;;29.00;14.30;;;1.10;84.40;;;;;;5061659;28;20994;-75
2021/01/17 10:49:36;;;;;;;27.77;14.20;;;1.10;83.90;;;;;;5059212;28;20555;-75
2021/01/17 10:52:09;;;;;;;;;;;1.10;84.20;;;;;;5056260;28;20520;-75
2021/01/17 10:54:35;;;;;;;27.37;14.20;;;1.10;83.90;;;;;;5063215;28;20363;-75
2021/01/17 10:57:05;;;;;;;30.50;15.03;;;1.10;83.90;;;;;;5058623;28;20037;-75
2021/01/17 10:59:34;;;;;;;28.33;13.33;;;1.00;83.40;;;;;;5058949;28;20154;-75
2021/01/17 11:02:00;;;;;;;27.37;15.07;;;1.00;83.30;;;;;;5056496;28;20036;-75
2021/01/17 11:04:38;;;;;;;27.63;14.30;;;1.00;83.60;;;;;;5058546;28;20044;-74
2021/01/17 11:07:05;;;;;;;30.57;13.90;;;1.00;83.90;;;;;;5064466;28;20043;-75
2021/01/17 11:09:31;;;;;;;25.07;13.70;;;1.10;83.60;;;;;;5064063;28;20033;-75
2021/01/17 11:11:57;;;;;;;24.53;11.90;;;1.20;83.20;;;;;;5066643;28;20488;-75
2021/01/17 11:14:33;;;;;;;27.67;14.23;;;1.30;82.80;;;;;;5062287;28;20162;-76
2021/01/17 11:17:01;;;;;;;25.07;11.73;;;1.40;82.70;;;;;;5046405;28;20400;-75
2021/01/17 11:19:37;;;;;;;27.03;13.47;;;1.60;83.00;;;;;;5061063;28;20488;-75
2021/01/17 11:22:03;;;;;;;25.13;14.03;;;1.60;82.50;;;;;;5070031;28;20045;-73
2021/01/17 11:24:37;;;;;;;28.03;14.90;;;1.70;82.40;;;;;;5064753;28;20115;-75
2021/01/17 11:27:14;;;;;;;26.00;13.90;;;1.90;81.80;;;;;;5060010;28;20039;-75
2021/01/17 11:29:41;;;;;;;26.80;14.53;;;2.00;81.20;;;;;;5062080;28;20492;-75
2021/01/17 11:32:08;;;;;;;27.70;14.57;;;2.00;80.90;;;;;;5063408;28;20556;-75
2021/01/17 11:34:39;;;;;;;27.90;14.87;;;2.00;80.80;;;;;;5064647;28;20060;-75
2021/01/17 11:37:06;;;;;;;28.67;14.43;;;2.00;80.20;;;;;;5070712;28;20083;-74
2021/01/17 11:39:33;;;;;;;27.50;14.97;;;1.90;79.50;;;;;;5068419;28;20032;-75
2021/01/17 11:41:59;;;;;;;28.10;15.40;;;1.80;79.70;;;;;;5070681;28;20036;-75
2021/01/17 11:44:33;;;;;;;25.47;14.10;;;1.70;79.90;;;;;;5053395;28;20060;-74
2021/01/17 11:47:01;;;;;;;28.07;13.90;;;1.60;80.10;;;;;;5059532;28;20036;-75
2021/01/17 11:49:28;;;;;;;29.07;15.57;;;1.50;80.00;;;;;;5063079;28;20039;-74
2021/01/17 11:51:55;;;;;;;28.43;14.40;;;1.40;80.00;;;;;;5061069;28;20060;-74
2021/01/17 11:54:32;;;;;;;27.83;14.87;;;1.40;80.30;;;;;;5062842;28;20039;-74
2021/01/17 11:57:06;;;;;;;29.30;14.93;;;1.40;80.30;;;;;;5063066;28;20033;-75
2021/01/17 11:59:34;;;;;;;27.03;14.10;;;1.50;80.80;;;;;;5059979;28;20029;-74
2021/01/17 12:02:23;;;;;;;26.50;13.33;;;1.60;80.70;;;;;;5061341;28;20425;-75
2021/01/17 12:04:59;;;;;;;28.53;14.33;;;1.60;80.40;;;;;;5061755;28;20121;-73
2021/01/17 12:07:25;;;;;;;30.07;15.73;;;1.70;80.20;;;;;;5063212;28;20067;-74
2021/01/17 12:10:13;;;;;;;29.80;15.80;;;1.70;79.80;;;;;;5059695;28;20064;-75
2021/01/17 12:12:40;;;;;;;29.83;15.43;;;1.70;79.30;;;;;;5061906;28;20049;-75
2021/01/17 12:15:09;;;;;;;31.27;16.37;;;1.70;79.30;;;;;;5063688;28;20045;-75
2021/01/17 12:17:36;;;;;;;27.50;13.93;;;1.90;79.50;;;;;;5044434;28;20037;-75
2021/01/17 12:20:02;;;;;;;29.30;16.20;;;2.20;79.50;;;;;;5064479;28;20044;-74
2021/01/17 12:22:27;;;;;;;29.90;15.23;;;2.60;80.30;;;;;;5070461;28;20036;-74
2021/01/17 12:24:53;;;;;;;26.40;14.70;;;3.10;80.50;;;;;;5058656;28;20052;-74
2021/01/17 12:27:19;;;;;;;28.93;15.37;;;3.70;79.90;;;;;;5061748;28;20039;-75
2021/01/17 12:29:45;;;;;;;24.67;14.17;;;4.20;79.00;;;;;;5050483;28;20075;-74
2021/01/17 12:32:10;;;;;;;26.57;14.47;;;4.70;78.30;;;;;;5052003;28;20041;-75
2021/01/17 12:34:36;;;;;;;27.43;14.90;;;5.10;77.10;;;;;;5051098;28;20029;-74
2021/01/17 12:37:02;;;;;;;24.83;14.20;;;5.20;75.30;;;;;;5050437;28;20063;-75
2021/01/17 12:39:28;;;;;;;25.33;14.47;;;5.20;75.00;;;;;;5051885;28;20044;-75
2021/01/17 12:41:57;;;;;;;23.20;11.57;;;5.10;73.70;;;;;;5052154;28;20041;-74
2021/01/17 12:44:22;;;;;;;27.50;14.43;;;5.10;72.20;;;;;;5050625;28;20037;-75